Time;durP1;ratioP1;P1;durP2;ratioP2;P2;SDS_P1;SDS_P2;PMS_P1;PMS_P2;Temp;Humidity;BMP_temperature;BMP_pressure;BME280_temperature;BME280_humidity;BME280_pressure;Samples;Min_cycle;Max_cycle;Signal;HPM_P1;HPM_P2
2022/08/09 00:01:47;;;;;;;1.63;1.33;;;15.20;58.10;15.20;101512.00;;;;5004423;27;87900;-62
2022/08/09 00:04:22;;;;;;;1.20;1.07;;;15.10;58.20;15.20;101513.00;;;;4996702;28;87099;-62
2022/08/09 00:06:48;;;;;;;1.20;1.10;;;15.10;58.40;15.10;101513.00;;;;5008514;27;88127;-62
2022/08/09 00:09:14;;;;;;;2.17;1.10;;;15.10;58.40;15.10;101513.00;;;;4995088;28;108177;-62
2022/08/09 00:11:40;;;;;;;1.83;1.30;;;15.10;58.60;15.10;101519.00;;;;5007679;27;88646;-62
2022/08/09 00:14:07;;;;;;;1.17;1.07;;;15.00;58.60;15.10;101504.00;;;;5017001;27;88065;-62
2022/08/09 00:16:33;;;;;;;1.17;1.07;;;15.00;58.60;15.10;101514.00;;;;5015629;27;88855;-62
2022/08/09 00:18:59;;;;;;;1.00;0.90;;;15.00;58.80;15.00;101519.00;;;;5016360;27;88120;-62
2022/08/09 00:21:25;;;;;;;8.90;1.27;;;15.00;58.90;15.00;101511.00;;;;5010618;27;87688;-62
2022/08/09 00:23:51;;;;;;;2.40;1.37;;;14.90;59.00;14.90;101513.00;;;;4995866;28;87843;-62
2022/08/09 00:26:16;;;;;;;1.63;1.50;;;14.90;59.20;14.90;101516.00;;;;4994997;27;113999;-63
2022/08/09 00:28:42;;;;;;;1.20;1.10;;;14.80;59.30;14.80;101522.00;;;;4995457;28;88176;-62
2022/08/09 00:31:08;;;;;;;1.80;1.70;;;14.80;59.50;14.70;101518.00;;;;5001891;27;105300;-62
2022/08/09 00:33:34;;;;;;;1.10;0.97;;;14.60;59.90;14.50;101522.00;;;;5015776;27;108993;-62
2022/08/09 00:36:01;;;;;;;2.03;1.23;;;14.50;60.10;14.40;101531.00;;;;5015888;27;89894;-62
2022/08/09 00:38:27;;;;;;;2.23;1.70;;;14.40;60.10;14.40;101519.00;;;;5015543;27;89567;-63
2022/08/09 00:40:53;;;;;;;2.50;1.70;;;14.40;60.30;14.40;101524.00;;;;5009261;27;95893;-63
2022/08/09 00:43:22;;;;;;;1.53;1.43;;;14.30;60.40;14.40;101530.00;;;;5014502;27;87982;-62
2022/08/09 00:45:48;;;;;;;3.03;1.87;;;14.30;60.60;14.30;101519.00;;;;5015053;27;118184;-62
2022/08/09 00:48:14;;;;;;;1.10;1.00;;;14.30;60.60;14.40;101520.00;;;;5005864;27;116489;-63
2022/08/09 00:50:40;;;;;;;1.63;1.13;;;14.30;60.60;14.30;101514.00;;;;4996806;27;111790;-63
2022/08/09 00:53:06;;;;;;;2.00;1.17;;;14.30;60.70;14.30;101518.00;;;;5016074;27;99991;-63
2022/08/09 00:55:32;;;;;;;1.97;1.77;;;14.30;60.90;14.30;101521.00;;;;5015762;27;89695;-63
2022/08/09 00:57:58;;;;;;;4.93;1.43;;;14.20;61.00;14.20;101512.00;;;;5014726;27;92193;-63
2022/08/09 01:00:24;;;;;;;2.03;1.83;;;14.20;61.10;14.20;101531.00;;;;5014830;27;89011;-63
2022/08/09 01:03:33;;;;;;;1.10;1.03;;;14.10;61.20;14.10;101523.00;;;;4996336;27;87743;-63
2022/08/09 01:06:09;;;;;;;1.33;1.23;;;14.20;61.60;14.10;101523.00;;;;4996537;27;88096;-63
2022/08/09 01:08:53;;;;;;;1.10;1.00;;;14.10;61.50;14.10;101523.00;;;;4993060;28;98772;-63
2022/08/09 01:11:57;;;;;;;1.13;1.03;;;14.10;61.80;14.00;101512.00;;;;5016228;27;87844;-63
2022/08/09 01:14:32;;;;;;;2.80;1.23;;;14.10;62.00;14.00;101519.00;;;;4994997;28;87888;-63
2022/08/09 01:17:08;;;;;;;1.37;1.27;;;14.00;62.10;14.00;101522.00;;;;5016893;27;89968;-63
2022/08/09 01:19:45;;;;;;;1.70;1.60;;;14.00;62.30;14.00;101525.00;;;;5016520;27;87871;-62
2022/08/09 01:22:16;;;;;;;1.17;1.07;;;14.00;62.50;13.90;101517.00;;;;5011736;27;88353;-63
2022/08/09 01:25:36;;;;;;;2.30;1.70;;;13.90;62.90;13.80;101520.00;;;;5014981;27;88196;-63
2022/08/09 01:28:04;;;;;;;1.83;1.60;;;13.80;63.20;13.80;101526.00;;;;5011345;27;89965;-63
2022/08/09 01:30:30;;;;;;;1.63;1.40;;;13.70;63.50;13.70;101512.00;;;;5013857;27;117534;-63
2022/08/09 01:32:59;;;;;;;2.13;1.53;;;13.70;64.30;13.60;101526.00;;;;5008705;27;110583;-63
2022/08/09 01:35:49;;;;;;;2.00;1.20;;;13.60;64.50;13.50;101527.00;;;;5009432;27;87718;-62
2022/08/09 01:38:19;;;;;;;2.70;1.77;;;13.50;64.80;13.40;101526.00;;;;5008965;27;110818;-62
2022/08/09 01:40:54;;;;;;;1.60;1.30;;;13.40;65.00;13.40;101521.00;;;;5016584;27;88252;-63
2022/08/09 01:43:22;;;;;;;1.27;1.17;;;13.40;65.60;13.30;101519.00;;;;4997120;27;101669;-63
2022/08/09 01:45:49;;;;;;;2.33;1.27;;;13.30;66.20;13.20;101521.00;;;;4998813;28;86990;-63
2022/08/09 01:48:18;;;;;;;3.10;1.10;;;13.20;66.40;13.10;101527.00;;;;5021204;27;103683;-63
2022/08/09 01:50:50;;;;;;;1.97;1.43;;;13.10;66.70;13.10;101530.00;;;;5001435;27;117496;-63
2022/08/09 01:53:18;;;;;;;1.50;1.00;;;13.10;67.00;13.10;101533.00;;;;4999381;27;89926;-63
2022/08/09 01:55:45;;;;;;;1.20;1.10;;;13.00;68.00;13.00;101536.00;;;;5008419;27;101659;-62
2022/08/09 01:58:13;;;;;;;1.27;1.17;;;13.00;68.10;12.90;101527.00;;;;5012941;27;87957;-63
2022/08/09 02:00:42;;;;;;;1.73;1.63;;;12.90;68.60;12.80;101526.00;;;;5013724;27;87796;-62
2022/08/09 02:03:08;;;;;;;1.60;1.20;;;12.80;68.90;12.80;101526.00;;;;5016936;27;87722;-62
2022/08/09 02:05:35;;;;;;;2.60;1.73;;;12.80;69.40;12.70;101516.00;;;;5010392;27;108347;-62
2022/08/09 02:08:10;;;;;;;1.47;1.37;;;12.70;69.80;12.70;101526.00;;;;4997208;27;116517;-62
2022/08/09 02:10:42;;;;;;;2.50;1.40;;;12.60;70.30;12.60;101526.00;;;;5013846;27;87734;-63
2022/08/09 02:13:11;;;;;;;2.40;1.90;;;12.60;70.70;12.60;101535.00;;;;4998654;27;87714;-63
2022/08/09 02:15:42;;;;;;;1.73;1.40;;;12.60;71.20;12.60;101532.00;;;;4999069;27;87906;-63
2022/08/09 02:18:08;;;;;;;1.43;1.27;;;12.60;71.60;12.50;101538.00;;;;4998411;27;88982;-62
2022/08/09 02:20:39;;;;;;;1.60;1.40;;;12.50;72.10;12.50;101535.00;;;;5012965;27;88829;-62
2022/08/09 02:23:15;;;;;;;1.70;1.23;;;12.50;72.40;12.50;101527.00;;;;5010019;27;87765;-63
2022/08/09 02:25:42;;;;;;;1.80;1.70;;;12.50;72.80;12.50;101526.00;;;;4997610;28;87532;-62
2022/08/09 02:28:12;;;;;;;2.57;1.37;;;12.50;73.00;12.50;101531.00;;;;4996400;28;88280;-62
2022/08/09 02:30:47;;;;;;;1.30;1.00;;;12.50;73.00;12.50;101533.00;;;;4998638;27;103843;-62
2022/08/09 02:33:20;;;;;;;2.23;1.10;;;12.50;73.10;12.60;101527.00;;;;5004116;27;88072;-63
2022/08/09 02:35:47;;;;;;;2.73;1.50;;;12.50;73.20;12.60;101537.00;;;;4996501;28;87157;-62
2022/08/09 02:38:19;;;;;;;2.07;1.87;;;12.50;73.20;12.60;101535.00;;;;5014052;27;94841;-62
2022/08/09 02:40:45;;;;;;;1.53;1.37;;;12.60;73.40;12.60;101534.00;;;;5017177;27;90854;-62
2022/08/09 02:43:11;;;;;;;1.73;1.50;;;12.60;73.60;12.60;101527.00;;;;4996327;28;109825;-62
2022/08/09 02:45:43;;;;;;;1.20;1.10;;;12.60;73.60;12.60;101535.00;;;;4998398;27;101793;-62
2022/08/09 02:48:14;;;;;;;2.90;1.50;;;12.60;73.80;12.60;101542.00;;;;4996604;27;110410;-63
2022/08/09 02:50:49;;;;;;;1.07;1.07;;;12.60;73.90;12.60;101533.00;;;;4995463;27;88706;-62
2022/08/09 02:53:22;;;;;;;1.53;1.43;;;12.60;74.10;12.60;101547.00;;;;5012950;27;100489;-62
2022/08/09 02:55:50;;;;;;;3.07;1.70;;;12.50;74.10;12.60;101535.00;;;;5014240;27;87992;-62
2022/08/09 02:58:20;;;;;;;3.07;1.83;;;12.50;74.30;12.60;101542.00;;;;5015416;27;88166;-62
2022/08/09 03:00:46;;;;;;;1.90;1.40;;;12.50;74.60;12.50;101541.00;;;;5015196;27;109469;-62
2022/08/09 03:03:13;;;;;;;2.27;1.90;;;12.50;74.90;12.50;101540.00;;;;4996822;27;96029;-62
2022/08/09 03:05:40;;;;;;;1.67;1.37;;;12.50;75.40;12.40;101540.00;;;;5001356;27;109903;-62
2022/08/09 03:08:08;;;;;;;2.23;2.03;;;12.40;75.60;12.30;101524.00;;;;5014963;27;89164;-62
2022/08/09 03:10:37;;;;;;;2.53;1.33;;;12.30;75.90;12.30;101527.00;;;;5016603;27;119095;-62
2022/08/09 03:13:05;;;;;;;1.13;1.03;;;12.30;76.10;12.30;101532.00;;;;5015632;27;87738;-62
2022/08/09 03:15:31;;;;;;;2.30;1.40;;;12.30;76.30;12.30;101527.00;;;;5014927;27;87751;-62
2022/08/09 03:17:57;;;;;;;1.60;1.50;;;12.20;76.40;12.30;101527.00;;;;5013153;27;89328;-62
2022/08/09 03:20:23;;;;;;;2.37;1.70;;;12.30;76.70;12.30;101531.00;;;;5015804;27;118176;-62
2022/08/09 03:22:50;;;;;;;1.80;1.40;;;12.30;76.90;12.30;101542.00;;;;5015049;27;87736;-62
2022/08/09 03:25:16;;;;;;;1.50;1.40;;;12.30;77.10;12.20;101538.00;;;;5016841;27;108197;-63
2022/08/09 03:27:42;;;;;;;2.40;1.53;;;12.20;77.80;12.10;101543.00;;;;5013889;27;118616;-62
2022/08/09 03:30:10;;;;;;;2.67;1.40;;;12.10;78.50;12.00;101539.00;;;;4997676;27;89138;-62
2022/08/09 03:32:37;;;;;;;1.90;1.67;;;12.00;78.70;11.90;101534.00;;;;5002306;27;88965;-62
2022/08/09 03:35:04;;;;;;;1.67;1.47;;;11.90;79.00;11.90;101536.00;;;;5011524;27;87988;-62
2022/08/09 03:37:29;;;;;;;1.77;1.33;;;11.90;79.20;11.90;101537.00;;;;4997499;27;88714;-62
2022/08/09 03:39:55;;;;;;;1.57;1.20;;;11.90;79.40;11.90;101541.00;;;;4995881;28;116263;-62
2022/08/09 03:42:21;;;;;;;1.83;1.70;;;11.90;79.60;11.90;101538.00;;;;5006326;27;111013;-62
2022/08/09 03:44:46;;;;;;;2.13;1.33;;;11.90;79.60;11.90;101542.00;;;;5016313;27;108557;-62
2022/08/09 03:47:12;;;;;;;1.60;1.20;;;11.90;79.80;12.00;101539.00;;;;5006682;27;117995;-62
2022/08/09 03:49:39;;;;;;;3.23;2.03;;;12.00;80.00;12.00;101539.00;;;;4996886;27;118285;-62
2022/08/09 03:52:07;;;;;;;1.57;1.47;;;11.90;80.10;12.00;101537.00;;;;5010822;27;110433;-62
2022/08/09 03:54:36;;;;;;;4.27;2.20;;;11.90;80.30;11.90;101546.00;;;;5023609;27;87924;-62
2022/08/09 03:57:13;;;;;;;2.20;1.53;;;11.90;80.50;11.90;101553.00;;;;5013651;27;89520;-63
2022/08/09 03:59:40;;;;;;;1.50;1.40;;;11.90;80.90;11.90;101551.00;;;;5014172;27;88901;-62
2022/08/09 04:02:06;;;;;;;2.43;2.00;;;11.90;80.90;11.90;101548.00;;;;5015965;27;87710;-62
2022/08/09 04:04:34;;;;;;;1.67;1.07;;;11.90;81.20;11.90;101556.00;;;;5015117;27;100530;-62
2022/08/09 04:07:00;;;;;;;1.97;1.60;;;11.90;81.40;11.90;101556.00;;;;5014432;27;88559;-62
2022/08/09 04:09:27;;;;;;;1.50;1.30;;;11.90;81.60;11.90;101549.00;;;;5014498;27;106198;-62
2022/08/09 04:12:50;;;;;;;1.90;1.33;;;11.90;81.80;11.90;101553.00;;;;5009093;27;101327;-62
2022/08/09 04:15:18;;;;;;;1.20;1.10;;;11.90;82.00;12.00;101549.00;;;;4987190;28;87097;-62
2022/08/09 04:17:44;;;;;;;2.20;1.20;;;11.90;82.20;12.00;101559.00;;;;4997628;27;88174;-62
2022/08/09 04:20:12;;;;;;;3.20;1.80;;;12.00;82.70;12.00;101554.00;;;;4996517;27;101652;-62
2022/08/09 04:22:39;;;;;;;2.00;1.83;;;12.00;83.10;12.00;101562.00;;;;4996659;27;89084;-62
2022/08/09 04:25:06;;;;;;;2.20;1.50;;;12.00;83.40;12.00;101571.00;;;;4995845;27;89723;-62
2022/08/09 04:27:32;;;;;;;2.30;1.20;;;12.00;83.80;12.10;101569.00;;;;4995821;27;107763;-62
2022/08/09 04:29:58;;;;;;;1.43;1.33;;;12.00;84.00;12.10;101566.00;;;;4995646;27;88283;-62
2022/08/09 04:32:27;;;;;;;3.27;1.97;;;12.10;84.30;12.20;101567.00;;;;5007645;27;109245;-62
2022/08/09 04:34:53;;;;;;;2.27;1.53;;;12.10;84.40;12.20;101572.00;;;;5013988;27;87908;-62
2022/08/09 04:37:19;;;;;;;2.13;1.80;;;12.20;84.50;12.30;101578.00;;;;5014572;27;87864;-62
2022/08/09 04:39:45;;;;;;;1.03;0.97;;;12.20;85.40;12.40;101573.00;;;;5016465;27;88961;-62
2022/08/09 04:42:11;;;;;;;6.07;2.27;;;12.40;85.00;12.50;101577.00;;;;5013723;27;88967;-62
2022/08/09 04:44:37;;;;;;;2.10;1.67;;;12.40;85.00;12.60;101585.00;;;;5014141;27;87672;-63
2022/08/09 04:47:03;;;;;;;2.27;2.03;;;12.50;85.00;12.70;101592.00;;;;5008843;27;118928;-62
2022/08/09 04:49:35;;;;;;;2.60;2.13;;;12.60;84.90;12.80;101585.00;;;;5005271;27;87790;-62
2022/08/09 04:52:03;;;;;;;1.23;1.13;;;12.70;85.00;13.00;101583.00;;;;4996946;27;87716;-62
2022/08/09 04:54:29;;;;;;;2.03;1.77;;;12.90;84.90;13.20;101580.00;;;;5006922;27;87873;-62
2022/08/09 04:56:55;;;;;;;2.27;2.07;;;13.10;84.70;13.40;101586.00;;;;5014481;27;109828;-63
2022/08/09 04:59:21;;;;;;;1.10;1.00;;;13.30;84.30;13.60;101591.00;;;;5014151;27;117257;-62
2022/08/09 05:01:47;;;;;;;1.57;1.47;;;13.40;83.90;13.70;101591.00;;;;5014963;27;94815;-63
2022/08/09 05:04:13;;;;;;;3.57;1.53;;;13.60;83.50;13.90;101599.00;;;;4998072;27;87131;-63
2022/08/09 05:06:39;;;;;;;5.93;1.67;;;13.80;83.20;14.00;101599.00;;;;4996060;27;118170;-63
2022/08/09 05:09:04;;;;;;;1.90;1.40;;;13.90;82.90;14.10;101597.00;;;;5006270;27;94787;-63
2022/08/09 05:11:30;;;;;;;2.67;1.37;;;14.00;82.60;14.20;101598.00;;;;5012875;27;110312;-63
2022/08/09 05:13:56;;;;;;;4.67;2.23;;;14.10;82.40;14.20;101602.00;;;;5015970;27;87957;-63
2022/08/09 05:16:21;;;;;;;1.80;1.70;;;14.10;82.30;14.30;101601.00;;;;5018277;27;88850;-63
2022/08/09 05:18:47;;;;;;;1.87;1.50;;;14.20;82.20;14.30;101594.00;;;;5009819;27;87645;-62
2022/08/09 05:21:13;;;;;;;2.27;2.07;;;14.20;82.10;14.40;101601.00;;;;5010882;27;110017;-63
2022/08/09 05:23:39;;;;;;;1.60;1.50;;;14.30;82.10;14.50;101600.00;;;;5007011;27;87853;-62
2022/08/09 05:26:05;;;;;;;2.87;1.53;;;14.40;82.00;14.70;101604.00;;;;5023669;27;118294;-63
2022/08/09 05:28:31;;;;;;;2.23;1.73;;;14.50;81.90;14.90;101607.00;;;;5010933;27;88755;-63
2022/08/09 05:30:56;;;;;;;1.60;1.50;;;14.70;81.60;15.10;101616.00;;;;4997929;27;107425;-63
2022/08/09 05:33:22;;;;;;;1.87;1.77;;;14.90;81.20;15.40;101621.00;;;;5016687;27;109397;-63
2022/08/09 05:35:48;;;;;;;1.47;1.33;;;15.20;81.00;15.60;101624.00;;;;5008506;27;117686;-63
2022/08/09 05:38:13;;;;;;;1.53;1.43;;;15.40;80.40;15.80;101623.00;;;;5001306;27;117713;-63
2022/08/09 05:40:39;;;;;;;1.70;1.47;;;15.60;80.70;16.00;101626.00;;;;5017674;27;110219;-64
2022/08/09 05:43:06;;;;;;;5.30;1.52;;;15.80;79.50;16.20;101634.00;;;;5018986;27;95259;-63
2022/08/09 05:45:32;;;;;;;4.13;1.25;;;16.00;79.10;16.50;101626.00;;;;5014777;27;89217;-63
2022/08/09 05:47:57;;;;;;;1.10;1.07;;;16.20;78.60;16.70;101637.00;;;;4998612;27;88776;-64
2022/08/09 05:50:26;;;;;;;4.97;1.58;;;16.50;78.00;17.00;101633.00;;;;5018581;27;89001;-63
2022/08/09 05:52:52;;;;;;;1.65;1.45;;;16.80;77.50;17.30;101641.00;;;;5018248;27;86700;-64
2022/08/09 05:55:18;;;;;;;1.40;1.30;;;17.10;76.90;17.50;101644.00;;;;5018385;27;88631;-63
2022/08/09 05:57:44;;;;;;;2.03;1.15;;;17.30;76.30;17.70;101639.00;;;;5002929;27;88354;-63
2022/08/09 06:00:12;;;;;;;1.30;1.20;;;17.50;75.70;17.90;101649.00;;;;4998690;27;100861;-64
2022/08/09 06:02:38;;;;;;;2.53;1.52;;;17.70;75.00;18.10;101645.00;;;;4998376;27;87776;-63
2022/08/09 06:05:05;;;;;;;0.68;0.68;;;17.90;74.40;18.20;101649.00;;;;4998186;28;87870;-63
2022/08/09 06:07:31;;;;;;;1.45;1.35;;;18.00;73.80;18.30;101649.00;;;;5008949;27;107194;-63
2022/08/09 06:09:57;;;;;;;1.15;1.02;;;18.10;73.30;18.40;101641.00;;;;5000718;27;94076;-63
2022/08/09 06:12:22;;;;;;;1.85;1.42;;;18.20;72.80;18.50;101648.00;;;;4998872;27;87942;-63
2022/08/09 06:14:48;;;;;;;1.35;1.13;;;18.30;72.40;18.60;101645.00;;;;4996814;27;117292;-63
2022/08/09 06:17:14;;;;;;;4.00;1.63;;;18.40;71.90;18.60;101643.00;;;;4997810;27;110998;-63
2022/08/09 06:19:39;;;;;;;2.13;1.17;;;18.50;71.80;18.70;101646.00;;;;5011396;27;110400;-63
2022/08/09 06:22:05;;;;;;;1.30;1.20;;;18.50;71.50;18.70;101641.00;;;;5016080;27;109284;-63
2022/08/09 06:24:31;;;;;;;1.70;1.60;;;18.60;71.10;18.80;101645.00;;;;5017388;27;89069;-63
2022/08/09 06:26:57;;;;;;;1.73;1.25;;;18.60;71.00;18.90;101650.00;;;;5008621;27;118088;-64
2022/08/09 06:29:23;;;;;;;1.02;0.82;;;18.70;70.80;19.00;101644.00;;;;5006976;27;87893;-63
2022/08/09 06:31:49;;;;;;;1.15;1.05;;;18.80;70.40;19.00;101645.00;;;;5014790;27;88082;-64
2022/08/09 06:34:15;;;;;;;1.05;0.90;;;18.90;70.00;19.10;101655.00;;;;5001348;27;107096;-63
2022/08/09 06:36:40;;;;;;;2.35;1.58;;;19.00;69.60;19.30;101651.00;;;;5017887;27;95025;-63
2022/08/09 06:39:09;;;;;;;1.88;1.40;;;19.10;69.10;19.40;101647.00;;;;5017406;27;102470;-64
2022/08/09 06:41:36;;;;;;;2.10;1.20;;;19.20;68.70;19.70;101650.00;;;;5016708;27;87152;-64
2022/08/09 06:44:02;;;;;;;0.95;0.85;;;19.40;68.20;19.90;101642.00;;;;5016912;27;108028;-64
2022/08/09 06:46:28;;;;;;;1.83;0.95;;;19.60;67.40;20.20;101655.00;;;;5016290;27;109493;-64
2022/08/09 06:48:54;;;;;;;1.23;1.08;;;19.90;66.70;20.50;101650.00;;;;5001956;27;109816;-64
2022/08/09 06:51:19;;;;;;;6.50;1.10;;;20.20;66.10;20.90;101650.00;;;;5003582;27;108016;-64
2022/08/09 06:53:45;;;;;;;1.50;1.05;;;20.60;65.20;21.30;101660.00;;;;5016108;27;117471;-64
2022/08/09 06:56:11;;;;;;;1.85;1.65;;;21.00;64.10;21.70;101657.00;;;;5015907;27;115612;-64
2022/08/09 06:58:37;;;;;;;1.30;0.98;;;21.30;63.00;22.10;101668.00;;;;5004091;27;111443;-64
2022/08/09 07:01:03;;;;;;;1.75;1.23;;;21.70;62.00;22.50;101663.00;;;;4999212;27;88108;-64
2022/08/09 07:03:29;;;;;;;2.15;1.02;;;22.10;61.00;22.90;101667.00;;;;4996283;28;99483;-64
2022/08/09 07:05:57;;;;;;;0.73;0.73;;;22.50;60.00;23.20;101675.00;;;;5005497;27;87134;-65
2022/08/09 07:08:22;;;;;;;1.15;1.10;;;22.80;59.30;23.50;101676.00;;;;5017134;27;87665;-64
2022/08/09 07:10:48;;;;;;;1.92;1.23;;;23.20;58.60;23.80;101676.00;;;;5016989;27;108226;-64
2022/08/09 07:13:14;;;;;;;1.15;0.93;;;23.50;57.90;24.00;101671.00;;;;5013408;27;88744;-64
2022/08/09 07:15:39;;;;;;;0.85;0.70;;;23.70;57.60;24.10;101674.00;;;;5015989;27;117437;-64
2022/08/09 07:18:05;;;;;;;1.13;1.08;;;23.90;56.20;24.20;101680.00;;;;4999420;27;109954;-64
2022/08/09 07:20:31;;;;;;;1.23;1.13;;;24.00;56.00;24.40;101677.00;;;;5002819;27;87704;-64
2022/08/09 07:22:56;;;;;;;0.98;0.88;;;24.10;54.90;24.50;101679.00;;;;5015877;27;114958;-64
2022/08/09 07:25:22;;;;;;;2.53;0.80;;;24.20;54.50;24.70;101681.00;;;;5015815;27;116344;-64
2022/08/09 07:27:48;;;;;;;1.88;0.93;;;24.40;53.70;24.90;101682.00;;;;5001522;27;109415;-64
2022/08/09 07:30:14;;;;;;;1.00;0.90;;;24.60;52.80;25.00;101682.00;;;;5009481;27;87063;-64
2022/08/09 07:32:40;;;;;;;0.93;0.80;;;24.70;52.50;25.20;101679.00;;;;5015640;27;117846;-65
2022/08/09 07:35:10;;;;;;;1.15;1.05;;;24.90;52.10;25.50;101682.00;;;;5016349;27;100655;-65
2022/08/09 07:37:36;;;;;;;0.63;0.60;;;25.10;51.40;25.70;101685.00;;;;5002650;27;88947;-64
2022/08/09 07:40:02;;;;;;;3.30;0.85;;;25.40;50.40;25.80;101686.00;;;;4996535;28;87875;-65
2022/08/09 07:42:28;;;;;;;2.50;1.63;;;25.50;49.80;25.80;101690.00;;;;5007718;27;87953;-64
2022/08/09 07:44:53;;;;;;;1.38;1.08;;;25.60;49.10;25.80;101688.00;;;;5015370;27;117680;-65
2022/08/09 07:47:21;;;;;;;1.00;0.70;;;25.60;48.90;25.90;101700.00;;;;5006091;27;102564;-65
2022/08/09 07:49:46;;;;;;;1.15;1.00;;;25.70;49.30;26.00;101691.00;;;;4996177;28;87953;-65
2022/08/09 07:52:12;;;;;;;1.23;1.13;;;25.80;48.10;26.10;101691.00;;;;4995408;27;116752;-65
2022/08/09 07:54:38;;;;;;;1.08;0.60;;;25.80;47.70;26.10;101698.00;;;;5008458;27;117482;-65
2022/08/09 07:57:04;;;;;;;1.10;0.88;;;25.80;47.20;26.10;101690.00;;;;5013341;27;87626;-65
2022/08/09 07:59:29;;;;;;;0.95;0.90;;;25.80;46.90;26.30;101688.00;;;;5014965;27;109017;-65
2022/08/09 08:01:55;;;;;;;1.48;0.82;;;26.00;46.90;26.50;101687.00;;;;4998704;27;111818;-65
2022/08/09 08:04:22;;;;;;;0.98;0.90;;;26.10;46.20;26.90;101682.00;;;;4996721;28;93894;-64
2022/08/09 08:06:47;;;;;;;1.42;0.50;;;26.40;46.30;27.40;101687.00;;;;4998456;27;87939;-65
2022/08/09 08:09:13;;;;;;;1.17;0.95;;;26.90;46.00;27.80;101691.00;;;;4995632;27;109100;-65
2022/08/09 08:11:39;;;;;;;0.73;0.73;;;27.40;45.60;28.30;101688.00;;;;4997188;27;88125;-65
2022/08/09 08:14:05;;;;;;;1.95;0.90;;;27.80;44.90;28.80;101686.00;;;;4996950;27;87767;-65
2022/08/09 08:16:31;;;;;;;0.60;0.60;;;28.30;44.30;29.10;101690.00;;;;4996660;27;87687;-65
2022/08/09 08:18:57;;;;;;;0.52;0.43;;;28.60;43.60;29.50;101683.00;;;;5015286;27;108912;-65
2022/08/09 08:21:23;;;;;;;0.88;0.60;;;29.00;43.20;29.90;101692.00;;;;5014636;27;88213;-65
2022/08/09 08:23:49;;;;;;;3.55;0.93;;;29.40;42.90;30.20;101693.00;;;;5016251;27;88185;-66
2022/08/09 08:26:15;;;;;;;2.13;0.40;;;29.80;42.30;30.40;101699.00;;;;5003685;27;88589;-65
2022/08/09 08:28:41;;;;;;;0.82;0.77;;;30.00;41.40;30.70;101688.00;;;;4996141;27;108196;-65
2022/08/09 08:31:07;;;;;;;1.23;0.60;;;30.30;40.90;30.90;101689.00;;;;5006438;27;118027;-64
2022/08/09 08:33:32;;;;;;;0.88;0.57;;;30.50;40.30;31.10;101694.00;;;;5014606;27;108844;-64
2022/08/09 08:35:58;;;;;;;0.45;0.43;;;30.70;39.70;31.30;101695.00;;;;5016488;27;88104;-65
2022/08/09 08:38:24;;;;;;;0.20;0.20;;;30.90;37.90;31.40;101690.00;;;;5014036;27;96483;-65
2022/08/09 08:40:51;;;;;;;1.55;0.77;;;31.00;38.00;31.50;101701.00;;;;5014618;27;117155;-65
2022/08/09 08:43:17;;;;;;;0.90;0.68;;;31.10;37.60;31.50;101690.00;;;;5014883;27;88872;-65
2022/08/09 08:45:56;;;;;;;1.52;0.47;;;31.20;36.30;31.40;101696.00;;;;5014973;27;107655;-66
2022/08/09 08:48:23;;;;;;;2.45;0.40;;;31.10;35.60;31.30;101697.00;;;;5002017;27;88126;-66
2022/08/09 08:50:49;;;;;;;0.28;0.28;;;31.10;35.90;31.50;101695.00;;;;4993679;28;118026;-66
2022/08/09 08:53:15;;;;;;;0.30;0.30;;;31.20;36.20;31.70;101689.00;;;;4995032;27;118607;-66
2022/08/09 08:55:45;;;;;;;0.40;0.40;;;31.40;35.90;31.80;101699.00;;;;5015083;27;87744;-66
2022/08/09 08:58:11;;;;;;;0.40;0.35;;;31.50;35.60;32.00;101700.00;;;;5001541;27;87979;-66
2022/08/09 09:00:39;;;;;;;0.60;0.38;;;31.70;35.00;32.20;101692.00;;;;4995193;27;117443;-66
2022/08/09 09:03:04;;;;;;;0.40;0.40;;;31.80;34.70;32.40;101690.00;;;;4995536;27;88434;-63
2022/08/09 09:05:32;;;;;;;0.20;0.20;;;32.00;34.20;32.50;101689.00;;;;4995645;28;88097;-65
2022/08/09 09:07:58;;;;;;;0.40;0.38;;;32.10;33.70;32.60;101696.00;;;;5001084;27;87104;-65
2022/08/09 09:10:27;;;;;;;0.73;0.50;;;32.20;33.30;32.80;101693.00;;;;5015264;27;88243;-66
2022/08/09 09:12:54;;;;;;;1.23;0.57;;;32.30;33.00;32.90;101700.00;;;;5011708;27;94331;-65
2022/08/09 09:15:19;;;;;;;1.17;0.40;;;32.50;32.60;33.00;101700.00;;;;5014336;27;102224;-66
2022/08/09 09:17:45;;;;;;;0.80;0.57;;;32.70;32.40;33.00;101700.00;;;;5004547;27;107940;-65
2022/08/09 09:20:13;;;;;;;0.60;0.60;;;32.70;31.60;32.80;101702.00;;;;4994338;28;118288;-66
2022/08/09 09:22:55;;;;;;;0.65;0.45;;;32.60;31.40;32.70;101704.00;;;;4996015;27;109437;-66
2022/08/09 09:25:40;;;;;;;0.75;0.45;;;32.40;31.70;32.60;101708.00;;;;4996128;27;87757;-65
2022/08/09 09:28:08;;;;;;;3.92;0.40;;;32.40;32.00;32.70;101701.00;;;;5007549;27;87949;-65
2022/08/09 09:30:52;;;;;;;0.50;0.50;;;32.40;31.70;32.60;101699.00;;;;5015107;27;88934;-65
2022/08/09 09:33:17;;;;;;;0.38;0.35;;;32.30;31.60;32.70;101697.00;;;;4997065;27;87770;-63
2022/08/09 09:36:04;;;;;;;0.77;0.45;;;32.30;31.80;32.80;101707.00;;;;4997536;27;100472;-63
2022/08/09 09:38:47;;;;;;;0.50;0.50;;;32.40;31.80;33.00;101698.00;;;;5000030;27;87661;-65
2022/08/09 09:41:22;;;;;;;0.57;0.43;;;32.50;31.50;33.10;101708.00;;;;4995068;27;90191;-66
2022/08/09 09:43:54;;;;;;;0.65;0.52;;;32.60;31.20;33.10;101703.00;;;;4993977;27;91303;-66
2022/08/09 09:46:34;;;;;;;1.58;0.70;;;32.60;30.10;32.90;101701.00;;;;4995903;28;87728;-63
2022/08/09 09:49:05;;;;;;;0.77;0.60;;;32.50;30.40;32.70;101701.00;;;;4997641;27;88130;-66
2022/08/09 09:51:34;;;;;;;0.47;0.40;;;32.30;30.10;32.70;101698.00;;;;4995278;28;89053;-63
2022/08/09 09:54:17;;;;;;;0.73;0.65;;;32.20;30.60;32.80;101698.00;;;;5000655;27;88288;-66
2022/08/09 09:56:48;;;;;;;0.50;0.50;;;32.20;30.70;32.90;101693.00;;;;4997391;27;87767;-65
2022/08/09 09:59:21;;;;;;;1.40;0.70;;;32.30;30.30;33.00;101687.00;;;;4994796;28;87317;-65
2022/08/09 10:01:59;;;;;;;0.65;0.40;;;32.40;30.40;33.10;101696.00;;;;5004846;27;89293;-63
2022/08/09 10:04:24;;;;;;;0.60;0.60;;;32.40;30.50;33.20;101694.00;;;;4997803;28;90696;-64
2022/08/09 10:06:50;;;;;;;0.30;0.30;;;32.60;30.40;33.40;101692.00;;;;5010958;27;88718;-64
2022/08/09 10:09:16;;;;;;;0.63;0.55;;;32.70;30.50;33.60;101684.00;;;;4997802;27;107465;-64
2022/08/09 10:11:42;;;;;;;0.70;0.50;;;33.00;30.20;33.60;101682.00;;;;5000047;27;88315;-63
2022/08/09 10:14:29;;;;;;;0.32;0.17;;;33.00;29.90;33.70;101679.00;;;;4997726;28;107958;-64
2022/08/09 10:16:55;;;;;;;0.68;0.43;;;33.00;29.50;33.70;101684.00;;;;4999119;27;88776;-65
2022/08/09 10:19:34;;;;;;;0.85;0.70;;;33.10;29.90;33.90;101681.00;;;;5013965;27;87578;-65
2022/08/09 10:22:00;;;;;;;0.80;0.52;;;33.30;29.50;33.90;101683.00;;;;5016311;27;87695;-63
2022/08/09 10:24:26;;;;;;;2.80;0.68;;;33.30;29.30;33.70;101684.00;;;;5015143;27;115953;-63
2022/08/09 10:26:55;;;;;;;0.47;0.47;;;33.10;29.60;33.70;101681.00;;;;5014098;27;111535;-64
2022/08/09 10:29:21;;;;;;;0.47;0.47;;;33.10;29.80;33.70;101680.00;;;;5011957;27;87763;-63
2022/08/09 10:31:48;;;;;;;1.67;0.85;;;33.10;30.00;33.70;101677.00;;;;5001594;27;108604;-64
2022/08/09 10:34:15;;;;;;;0.45;0.45;;;33.10;30.00;33.90;101680.00;;;;4997092;27;89814;-63
2022/08/09 10:36:42;;;;;;;0.98;0.85;;;33.20;30.00;34.10;101673.00;;;;4996693;27;109850;-65
2022/08/09 10:39:09;;;;;;;1.98;0.85;;;33.40;29.90;34.50;101680.00;;;;5015577;27;92544;-64
2022/08/09 10:41:35;;;;;;;0.88;0.52;;;33.70;29.90;34.90;101681.00;;;;5013736;27;88731;-64
2022/08/09 10:44:02;;;;;;;3.17;0.90;;;34.00;29.70;35.10;101682.00;;;;4996826;27;88683;-65
2022/08/09 10:46:54;;;;;;;1.15;1.05;;;34.30;29.20;35.00;101682.00;;;;5007873;27;87575;-63
2022/08/09 10:49:45;;;;;;;0.70;0.68;;;34.30;29.10;34.80;101679.00;;;;4998139;27;87400;-64
2022/08/09 10:52:31;;;;;;;0.40;0.40;;;34.20;29.10;34.50;101678.00;;;;4997288;27;88675;-64